sensor_id;sensor_type;location;lat;lon;timestamp;pressure;altitude;pressure_sealevel;temperature;humidity
86085;BME280;76694;53.530;50.016;2024-03-08T00:00:25;101270.38;;;-17.30;78.90
86085;BME280;76694;53.530;50.016;2024-03-08T00:05:27;101293.91;;;-17.20;79.32
86085;BME280;76694;53.530;50.016;2024-03-08T00:10:30;101290.28;;;-17.32;78.65
86085;BME280;76694;53.530;50.016;2024-03-08T00:15:32;101277.41;;;-17.42;78.60
86085;BME280;76694;53.530;50.016;2024-03-08T00:20:35;101281.50;;;-17.40;78.71
86085;BME280;76694;53.530;50.016;2024-03-08T00:25:37;101283.59;;;-17.48;78.81
86085;BME280;76694;53.530;50.016;2024-03-08T00:30:41;101256.22;;;-17.62;78.74
86085;BME280;76694;53.530;50.016;2024-03-08T00:35:45;101276.78;;;-17.82;78.26
86085;BME280;76694;53.530;50.016;2024-03-08T00:40:47;101279.06;;;-17.92;78.35
86085;BME280;76694;53.530;50.016;2024-03-08T00:45:50;101266.63;;;-18.04;78.05
86085;BME280;76694;53.530;50.016;2024-03-08T00:50:52;101251.13;;;-18.40;77.67
86085;BME280;76694;53.530;50.016;2024-03-08T00:55:55;101255.59;;;-18.21;78.20
86085;BME280;76694;53.530;50.016;2024-03-08T01:00:58;101263.81;;;-18.29;78.52
86085;BME280;76694;53.530;50.016;2024-03-08T01:06:02;101256.50;;;-18.47;78.38
86085;BME280;76694;53.530;50.016;2024-03-08T01:11:05;101227.03;;;-18.65;78.04
86085;BME280;76694;53.530;50.016;2024-03-08T01:16:07;101230.31;;;-18.43;78.64
86085;BME280;76694;53.530;50.016;2024-03-08T01:21:10;101207.03;;;-18.74;78.13
86085;BME280;76694;53.530;50.016;2024-03-08T01:26:13;101182.91;;;-18.98;77.89
86085;BME280;76694;53.530;50.016;2024-03-08T01:31:17;101226.44;;;-18.73;78.01
86085;BME280;76694;53.530;50.016;2024-03-08T01:36:19;101220.53;;;-18.88;78.08
86085;BME280;76694;53.530;50.016;2024-03-08T01:41:22;101202.13;;;-18.96;78.18
86085;BME280;76694;53.530;50.016;2024-03-08T01:46:25;101199.88;;;-18.86;78.46
86085;BME280;76694;53.530;50.016;2024-03-08T01:51:30;101186.97;;;-18.89;78.27
86085;BME280;76694;53.530;50.016;2024-03-08T01:56:33;101164.28;;;-19.18;77.70
86085;BME280;76694;53.530;50.016;2024-03-08T02:01:36;101169.41;;;-19.17;77.82
86085;BME280;76694;53.530;50.016;2024-03-08T02:06:39;101136.72;;;-19.50;77.54
86085;BME280;76694;53.530;50.016;2024-03-08T02:11:41;101161.25;;;-19.35;78.04
86085;BME280;76694;53.530;50.016;2024-03-08T02:16:44;101131.19;;;-19.48;78.26
86085;BME280;76694;53.530;50.016;2024-03-08T02:21:46;101152.66;;;-19.24;78.05
86085;BME280;76694;53.530;50.016;2024-03-08T02:26:49;101162.91;;;-19.40;77.61
86085;BME280;76694;53.530;50.016;2024-03-08T02:31:52;101164.50;;;-19.46;77.58
86085;BME280;76694;53.530;50.016;2024-03-08T02:36:54;101094.38;;;-19.97;77.19
86085;BME280;76694;53.530;50.016;2024-03-08T02:41:58;101156.94;;;-19.55;77.21
86085;BME280;76694;53.530;50.016;2024-03-08T02:47:01;101152.22;;;-19.79;77.19
86085;BME280;76694;53.530;50.016;2024-03-08T02:52:04;101146.09;;;-19.73;77.41
86085;BME280;76694;53.530;50.016;2024-03-08T02:57:07;101131.78;;;-19.92;77.39
86085;BME280;76694;53.530;50.016;2024-03-08T03:02:09;101140.75;;;-19.86;77.40
86085;BME280;76694;53.530;50.016;2024-03-08T03:07:12;101099.88;;;-20.12;77.48
86085;BME280;76694;53.530;50.016;2024-03-08T03:12:15;101124.59;;;-19.98;77.15
86085;BME280;76694;53.530;50.016;2024-03-08T03:17:17;101116.44;;;-19.97;77.25
86085;BME280;76694;53.530;50.016;2024-03-08T03:22:20;101126.03;;;-19.96;76.40
86085;BME280;76694;53.530;50.016;2024-03-08T03:27:22;101115.84;;;-19.92;76.69
86085;BME280;76694;53.530;50.016;2024-03-08T03:32:25;101118.94;;;-19.75;76.58
86085;BME280;76694;53.530;50.016;2024-03-08T03:37:29;101108.53;;;-19.57;76.85
86085;BME280;76694;53.530;50.016;2024-03-08T03:42:31;101096.28;;;-19.39;76.82
86085;BME280;76694;53.530;50.016;2024-03-08T03:47:34;101086.63;;;-19.20;76.83
86085;BME280;76694;53.530;50.016;2024-03-08T03:52:36;101065.53;;;-19.09;76.63
86085;BME280;76694;53.530;50.016;2024-03-08T03:57:39;101079.97;;;-18.65;76.65
86085;BME280;76694;53.530;50.016;2024-03-08T04:02:42;101068.31;;;-18.33;76.67
86085;BME280;76694;53.530;50.016;2024-03-08T04:07:45;101041.81;;;-17.90;76.99
86085;BME280;76694;53.530;50.016;2024-03-08T04:12:48;101016.16;;;-17.78;76.61
86085;BME280;76694;53.530;50.016;2024-03-08T04:17:50;101016.06;;;-17.47;75.59
86085;BME280;76694;53.530;50.016;2024-03-08T04:22:53;101017.34;;;-17.13;75.51
86085;BME280;76694;53.530;50.016;2024-03-08T04:27:56;101036.75;;;-16.52;74.54
86085;BME280;76694;53.530;50.016;2024-03-08T04:32:58;101042.41;;;-16.01;74.52
86085;BME280;76694;53.530;50.016;2024-03-08T04:38:02;101041.53;;;-15.72;74.58
86085;BME280;76694;53.530;50.016;2024-03-08T04:43:08;101036.69;;;-15.75;74.25
86085;BME280;76694;53.530;50.016;2024-03-08T04:48:11;101021.59;;;-15.46;73.75
86085;BME280;76694;53.530;50.016;2024-03-08T04:53:14;100998.75;;;-15.37;73.31
86085;BME280;76694;53.530;50.016;2024-03-08T04:58:16;101002.69;;;-14.93;73.44
86085;BME280;76694;53.530;50.016;2024-03-08T05:03:19;101004.22;;;-14.85;73.39
86085;BME280;76694;53.530;50.016;2024-03-08T05:08:23;101003.47;;;-14.30;74.38
86085;BME280;76694;53.530;50.016;2024-03-08T05:13:25;100984.25;;;-13.93;73.30
86085;BME280;76694;53.530;50.016;2024-03-08T05:18:29;100986.69;;;-14.09;73.19
86085;BME280;76694;53.530;50.016;2024-03-08T05:23:34;100987.34;;;-13.68;73.45
86085;BME280;76694;53.530;50.016;2024-03-08T05:28:36;100940.13;;;-13.53;73.66
86085;BME280;76694;53.530;50.016;2024-03-08T05:33:39;100955.03;;;-12.59;75.03
86085;BME280;76694;53.530;50.016;2024-03-08T05:38:45;100944.63;;;-12.55;73.77
86085;BME280;76694;53.530;50.016;2024-03-08T05:43:48;100968.72;;;-12.12;75.60
86085;BME280;76694;53.530;50.016;2024-03-08T05:48:50;100943.03;;;-11.98;74.37
86085;BME280;76694;53.530;50.016;2024-03-08T05:53:53;100927.53;;;-11.86;74.24
86085;BME280;76694;53.530;50.016;2024-03-08T05:58:58;100930.34;;;-11.29;74.35
86085;BME280;76694;53.530;50.016;2024-03-08T06:04:02;100892.03;;;-10.89;74.06
86085;BME280;76694;53.530;50.016;2024-03-08T06:09:05;100900.28;;;-9.73;74.75
86085;BME280;76694;53.530;50.016;2024-03-08T06:14:13;100895.69;;;-9.68;73.09
86085;BME280;76694;53.530;50.016;2024-03-08T06:19:20;100889.63;;;-9.05;73.32
86085;BME280;76694;53.530;50.016;2024-03-08T06:24:23;100884.50;;;-8.08;71.14
86085;BME280;76694;53.530;50.016;2024-03-08T06:29:25;100877.34;;;-7.32;69.90
86085;BME280;76694;53.530;50.016;2024-03-08T06:34:28;100862.13;;;-6.62;66.32
86085;BME280;76694;53.530;50.016;2024-03-08T06:39:31;100850.88;;;-6.00;64.26
86085;BME280;76694;53.530;50.016;2024-03-08T06:44:35;100819.25;;;-5.77;63.28
86085;BME280;76694;53.530;50.016;2024-03-08T06:49:37;100839.06;;;-5.77;62.06
86085;BME280;76694;53.530;50.016;2024-03-08T06:54:41;100826.06;;;-5.47;61.85
86085;BME280;76694;53.530;50.016;2024-03-08T06:59:43;100828.09;;;-5.12;60.64
86085;BME280;76694;53.530;50.016;2024-03-08T07:04:47;100819.94;;;-5.12;61.43
86085;BME280;76694;53.530;50.016;2024-03-08T07:09:50;100814.69;;;-4.46;60.13
86085;BME280;76694;53.530;50.016;2024-03-08T07:14:53;100773.44;;;-4.17;57.81
86085;BME280;76694;53.530;50.016;2024-03-08T07:19:56;100795.44;;;-4.14;57.07
86085;BME280;76694;53.530;50.016;2024-03-08T07:25:01;100784.91;;;-3.84;57.87
86085;BME280;76694;53.530;50.016;2024-03-08T07:30:12;100776.00;;;-3.68;56.41
86085;BME280;76694;53.530;50.016;2024-03-08T07:35:17;100779.16;;;-3.44;56.74
86085;BME280;76694;53.530;50.016;2024-03-08T07:40:21;100771.03;;;-2.53;54.37
86085;BME280;76694;53.530;50.016;2024-03-08T07:45:26;100730.56;;;-2.77;54.55
86085;BME280;76694;53.530;50.016;2024-03-08T07:50:29;100758.16;;;-1.93;54.44
86085;BME280;76694;53.530;50.016;2024-03-08T07:55:34;100714.00;;;-2.97;54.11
86085;BME280;76694;53.530;50.016;2024-03-08T08:00:38;100742.38;;;-2.98;54.42
86085;BME280;76694;53.530;50.016;2024-03-08T08:05:42;100750.63;;;-2.04;53.23
86085;BME280;76694;53.530;50.016;2024-03-08T08:10:45;100744.03;;;-1.48;52.09
86085;BME280;76694;53.530;50.016;2024-03-08T08:15:50;100738.59;;;-1.19;53.24
86085;BME280;76694;53.530;50.016;2024-03-08T08:20:53;100715.75;;;-1.61;51.01
86085;BME280;76694;53.530;50.016;2024-03-08T08:25:57;100704.59;;;-0.15;54.30
86085;BME280;76694;53.530;50.016;2024-03-08T08:31:00;100698.63;;;1.64;47.93
86085;BME280;76694;53.530;50.016;2024-03-08T08:36:04;100695.50;;;2.68;43.35
86085;BME280;76694;53.530;50.016;2024-03-08T08:41:06;100675.19;;;2.91;43.85
86085;BME280;76694;53.530;50.016;2024-03-08T08:46:13;100674.25;;;3.38;40.21
86085;BME280;76694;53.530;50.016;2024-03-08T08:51:17;100667.78;;;3.49;39.52
86085;BME280;76694;53.530;50.016;2024-03-08T08:56:20;100639.84;;;4.12;40.44
86085;BME280;76694;53.530;50.016;2024-03-08T09:01:24;100638.66;;;3.90;41.71
86085;BME280;76694;53.530;50.016;2024-03-08T09:06:28;100639.94;;;4.64;47.49
86085;BME280;76694;53.530;50.016;2024-03-08T09:11:34;100625.00;;;4.68;48.21
86085;BME280;76694;53.530;50.016;2024-03-08T09:16:37;100626.78;;;3.28;50.83
86085;BME280;76694;53.530;50.016;2024-03-08T09:21:39;100613.38;;;3.46;51.24
86085;BME280;76694;53.530;50.016;2024-03-08T09:26:42;100593.84;;;3.16;44.22
86085;BME280;76694;53.530;50.016;2024-03-08T09:31:45;100604.53;;;2.83;47.48
86085;BME280;76694;53.530;50.016;2024-03-08T09:36:48;100593.69;;;2.24;39.31
86085;BME280;76694;53.530;50.016;2024-03-08T09:41:51;100575.06;;;3.22;39.79
86085;BME280;76694;53.530;50.016;2024-03-08T09:46:54;100585.72;;;3.23;38.34
86085;BME280;76694;53.530;50.016;2024-03-08T09:51:57;100586.00;;;3.98;52.33
86085;BME280;76694;53.530;50.016;2024-03-08T09:57:01;100570.50;;;3.71;41.58
86085;BME280;76694;53.530;50.016;2024-03-08T10:02:13;100494.38;;;2.14;38.20
86085;BME280;76694;53.530;50.016;2024-03-08T10:07:17;100561.94;;;2.96;46.02
86085;BME280;76694;53.530;50.016;2024-03-08T10:12:20;100565.81;;;2.41;40.08
86085;BME280;76694;53.530;50.016;2024-03-08T10:17:23;100560.22;;;2.22;46.34
86085;BME280;76694;53.530;50.016;2024-03-08T10:22:27;100556.00;;;2.09;43.90
86085;BME280;76694;53.530;50.016;2024-03-08T10:27:31;100557.78;;;1.86;50.45
86085;BME280;76694;53.530;50.016;2024-03-08T10:32:34;100530.41;;;1.46;50.04
86085;BME280;76694;53.530;50.016;2024-03-08T10:37:46;100537.03;;;1.30;44.34
86085;BME280;76694;53.530;50.016;2024-03-08T10:42:57;100553.81;;;0.85;42.91
86085;BME280;76694;53.530;50.016;2024-03-08T10:53:30;100533.38;;;0.70;42.04
86085;BME280;76694;53.530;50.016;2024-03-08T10:58:35;100533.56;;;0.77;41.70
86085;BME280;76694;53.530;50.016;2024-03-08T11:08:44;100539.91;;;0.94;41.58
86085;BME280;76694;53.530;50.016;2024-03-08T11:13:48;100524.97;;;0.91;42.14
86085;BME280;76694;53.530;50.016;2024-03-08T11:19:00;100538.09;;;0.98;41.44
86085;BME280;76694;53.530;50.016;2024-03-08T11:24:09;100534.78;;;0.64;43.70
86085;BME280;76694;53.530;50.016;2024-03-08T11:34:42;100514.66;;;0.48;43.66
86085;BME280;76694;53.530;50.016;2024-03-08T11:39:51;100510.03;;;0.00;42.90
86085;BME280;76694;53.530;50.016;2024-03-08T11:44:54;100516.22;;;-0.03;45.35
86085;BME280;76694;53.530;50.016;2024-03-08T11:49:57;100536.44;;;-0.07;45.89
86085;BME280;76694;53.530;50.016;2024-03-08T11:55:02;100537.34;;;-0.15;48.17
86085;BME280;76694;53.530;50.016;2024-03-08T12:00:05;100524.28;;;-0.42;51.54
86085;BME280;76694;53.530;50.016;2024-03-08T12:05:09;100517.69;;;-0.29;46.42
86085;BME280;76694;53.530;50.016;2024-03-08T12:10:20;100546.19;;;-0.54;44.83
86085;BME280;76694;53.530;50.016;2024-03-08T12:15:24;100517.25;;;-0.76;47.84
86085;BME280;76694;53.530;50.016;2024-03-08T12:20:29;100525.34;;;-0.79;47.33
86085;BME280;76694;53.530;50.016;2024-03-08T12:25:33;100507.19;;;-0.84;48.79
86085;BME280;76694;53.530;50.016;2024-03-08T12:30:49;100523.97;;;-0.86;51.28
86085;BME280;76694;53.530;50.016;2024-03-08T12:35:55;100511.94;;;-1.26;51.35
86085;BME280;76694;53.530;50.016;2024-03-08T12:41:01;100524.22;;;-1.32;48.99
86085;BME280;76694;53.530;50.016;2024-03-08T12:46:03;100514.59;;;-1.58;49.71
86085;BME280;76694;53.530;50.016;2024-03-08T12:51:08;100488.19;;;-1.75;51.74
86085;BME280;76694;53.530;50.016;2024-03-08T12:56:20;100474.16;;;-1.74;52.24
86085;BME280;76694;53.530;50.016;2024-03-08T13:01:31;100492.09;;;-1.85;52.34
86085;BME280;76694;53.530;50.016;2024-03-08T13:06:34;100505.06;;;-2.02;53.04
86085;BME280;76694;53.530;50.016;2024-03-08T13:11:37;100492.41;;;-2.07;59.57
86085;BME280;76694;53.530;50.016;2024-03-08T13:16:39;100491.84;;;-2.21;54.40
86085;BME280;76694;53.530;50.016;2024-03-08T13:21:42;100493.28;;;-2.23;60.39
86085;BME280;76694;53.530;50.016;2024-03-08T13:26:45;100491.31;;;-2.43;57.33
86085;BME280;76694;53.530;50.016;2024-03-08T13:31:49;100484.69;;;-2.42;57.78
86085;BME280;76694;53.530;50.016;2024-03-08T13:36:54;100485.81;;;-2.35;63.63
86085;BME280;76694;53.530;50.016;2024-03-08T13:42:02;100492.63;;;-2.50;61.26
86085;BME280;76694;53.530;50.016;2024-03-08T13:47:07;100478.03;;;-2.62;58.49
86085;BME280;76694;53.530;50.016;2024-03-08T13:52:10;100482.34;;;-2.61;56.72
86085;BME280;76694;53.530;50.016;2024-03-08T13:57:14;100473.09;;;-2.69;59.95
86085;BME280;76694;53.530;50.016;2024-03-08T14:02:35;100494.63;;;-2.76;62.34
86085;BME280;76694;53.530;50.016;2024-03-08T14:07:38;100462.44;;;-3.08;62.75
86085;BME280;76694;53.530;50.016;2024-03-08T14:12:41;100494.06;;;-3.15;60.21
86085;BME280;76694;53.530;50.016;2024-03-08T14:17:45;100492.63;;;-3.30;64.58
86085;BME280;76694;53.530;50.016;2024-03-08T14:22:49;100455.44;;;-3.69;64.73
86085;BME280;76694;53.530;50.016;2024-03-08T14:27:54;100489.28;;;-3.70;61.11
86085;BME280;76694;53.530;50.016;2024-03-08T14:33:03;100448.34;;;-4.04;62.88
86085;BME280;76694;53.530;50.016;2024-03-08T14:38:07;100457.81;;;-4.10;64.13
86085;BME280;76694;53.530;50.016;2024-03-08T14:43:13;100482.00;;;-4.09;63.91
86085;BME280;76694;53.530;50.016;2024-03-08T14:48:16;100448.09;;;-4.42;64.83
86085;BME280;76694;53.530;50.016;2024-03-08T14:53:19;100473.13;;;-4.31;63.41
86085;BME280;76694;53.530;50.016;2024-03-08T14:58:22;100473.78;;;-4.34;63.26
86085;BME280;76694;53.530;50.016;2024-03-08T15:03:26;100475.66;;;-4.43;64.10
86085;BME280;76694;53.530;50.016;2024-03-08T15:08:31;100451.41;;;-4.62;63.83
86085;BME280;76694;53.530;50.016;2024-03-08T15:13:35;100441.44;;;-4.75;66.38
86085;BME280;76694;53.530;50.016;2024-03-08T15:18:48;100425.50;;;-4.90;66.26
86085;BME280;76694;53.530;50.016;2024-03-08T15:23:52;100442.38;;;-4.79;67.19
86085;BME280;76694;53.530;50.016;2024-03-08T15:28:57;100458.69;;;-4.79;68.60
86085;BME280;76694;53.530;50.016;2024-03-08T15:34:00;100453.53;;;-4.90;67.95
86085;BME280;76694;53.530;50.016;2024-03-08T15:39:04;100472.25;;;-4.88;68.91
86085;BME280;76694;53.530;50.016;2024-03-08T15:44:12;100450.91;;;-5.03;71.08
86085;BME280;76694;53.530;50.016;2024-03-08T15:49:16;100454.94;;;-4.92;73.51
86085;BME280;76694;53.530;50.016;2024-03-08T15:54:21;100425.34;;;-5.24;70.02
86085;BME280;76694;53.530;50.016;2024-03-08T15:59:24;100468.00;;;-5.11;69.07
86085;BME280;76694;53.530;50.016;2024-03-08T16:04:29;100447.97;;;-5.15;70.49
86085;BME280;76694;53.530;50.016;2024-03-08T16:09:32;100431.88;;;-5.25;72.46
86085;BME280;76694;53.530;50.016;2024-03-08T16:14:37;100406.16;;;-5.50;70.98
86085;BME280;76694;53.530;50.016;2024-03-08T16:19:40;100437.66;;;-5.27;70.47
86085;BME280;76694;53.530;50.016;2024-03-08T16:24:43;100418.72;;;-5.40;73.46
86085;BME280;76694;53.530;50.016;2024-03-08T16:29:46;100426.50;;;-5.47;73.77
86085;BME280;76694;53.530;50.016;2024-03-08T16:34:49;100438.63;;;-5.67;72.53
86085;BME280;76694;53.530;50.016;2024-03-08T16:39:53;100423.09;;;-5.97;73.64
86085;BME280;76694;53.530;50.016;2024-03-08T16:44:56;100434.38;;;-6.04;75.08
86085;BME280;76694;53.530;50.016;2024-03-08T16:49:59;100429.63;;;-5.98;76.66
86085;BME280;76694;53.530;50.016;2024-03-08T16:55:03;100432.66;;;-6.00;75.27
86085;BME280;76694;53.530;50.016;2024-03-08T17:00:09;100418.84;;;-5.90;74.54
86085;BME280;76694;53.530;50.016;2024-03-08T17:05:16;100421.44;;;-5.85;74.43
86085;BME280;76694;53.530;50.016;2024-03-08T17:10:19;100420.69;;;-5.77;74.28
86085;BME280;76694;53.530;50.016;2024-03-08T17:15:22;100414.25;;;-5.81;74.72
86085;BME280;76694;53.530;50.016;2024-03-08T17:20:26;100416.19;;;-6.03;74.43
86085;BME280;76694;53.530;50.016;2024-03-08T17:25:29;100417.59;;;-6.06;75.83
86085;BME280;76694;53.530;50.016;2024-03-08T17:30:33;100415.06;;;-6.38;76.59
86085;BME280;76694;53.530;50.016;2024-03-08T17:35:37;100408.25;;;-6.63;76.99
86085;BME280;76694;53.530;50.016;2024-03-08T17:40:43;100399.44;;;-7.09;76.72
86085;BME280;76694;53.530;50.016;2024-03-08T17:45:46;100409.97;;;-7.21;77.64
86085;BME280;76694;53.530;50.016;2024-03-08T17:50:48;100392.19;;;-7.73;77.33
86085;BME280;76694;53.530;50.016;2024-03-08T17:55:51;100386.47;;;-7.71;78.29
86085;BME280;76694;53.530;50.016;2024-03-08T18:00:54;100404.66;;;-7.77;78.60
86085;BME280;76694;53.530;50.016;2024-03-08T18:05:57;100388.44;;;-8.28;78.52
86085;BME280;76694;53.530;50.016;2024-03-08T18:10:59;100399.63;;;-8.53;78.61
86085;BME280;76694;53.530;50.016;2024-03-08T18:16:02;100379.13;;;-8.77;79.13
86085;BME280;76694;53.530;50.016;2024-03-08T18:21:05;100404.47;;;-8.50;80.40
86085;BME280;76694;53.530;50.016;2024-03-08T18:26:09;100394.31;;;-9.05;79.93
86085;BME280;76694;53.530;50.016;2024-03-08T18:31:11;100406.34;;;-9.16;79.94
86085;BME280;76694;53.530;50.016;2024-03-08T18:36:16;100403.00;;;-9.32;80.62
86085;BME280;76694;53.530;50.016;2024-03-08T18:41:20;100394.41;;;-9.39;81.20
86085;BME280;76694;53.530;50.016;2024-03-08T18:46:25;100405.22;;;-9.39;81.61
86085;BME280;76694;53.530;50.016;2024-03-08T18:51:35;100369.47;;;-9.83;80.96
86085;BME280;76694;53.530;50.016;2024-03-08T18:56:37;100415.81;;;-9.76;81.04
86085;BME280;76694;53.530;50.016;2024-03-08T19:01:41;100412.13;;;-9.85;81.07
86085;BME280;76694;53.530;50.016;2024-03-08T19:06:50;100373.97;;;-10.07;81.48
86085;BME280;76694;53.530;50.016;2024-03-08T19:11:53;100401.34;;;-9.90;81.97
86085;BME280;76694;53.530;50.016;2024-03-08T19:16:59;100403.75;;;-9.83;82.33
86085;BME280;76694;53.530;50.016;2024-03-08T19:22:02;100383.09;;;-9.98;81.84
86085;BME280;76694;53.530;50.016;2024-03-08T19:27:08;100380.38;;;-9.98;81.57
86085;BME280;76694;53.530;50.016;2024-03-08T19:32:19;100397.84;;;-9.91;82.40
86085;BME280;76694;53.530;50.016;2024-03-08T19:37:22;100384.16;;;-9.99;82.12
86085;BME280;76694;53.530;50.016;2024-03-08T19:42:28;100397.59;;;-9.89;81.72
86085;BME280;76694;53.530;50.016;2024-03-08T19:47:31;100389.59;;;-10.04;82.21
86085;BME280;76694;53.530;50.016;2024-03-08T19:52:35;100382.66;;;-10.10;82.04
86085;BME280;76694;53.530;50.016;2024-03-08T19:57:42;100393.59;;;-9.97;82.32
86085;BME280;76694;53.530;50.016;2024-03-08T20:02:48;100380.69;;;-10.00;82.07
86085;BME280;76694;53.530;50.016;2024-03-08T20:07:52;100388.97;;;-9.91;82.04
86085;BME280;76694;53.530;50.016;2024-03-08T20:12:57;100368.75;;;-9.94;81.86
86085;BME280;76694;53.530;50.016;2024-03-08T20:18:02;100379.94;;;-9.76;81.77
86085;BME280;76694;53.530;50.016;2024-03-08T20:23:04;100358.88;;;-9.74;82.04
86085;BME280;76694;53.530;50.016;2024-03-08T20:28:08;100353.69;;;-9.71;81.98
86085;BME280;76694;53.530;50.016;2024-03-08T20:33:12;100331.06;;;-9.75;82.00
86085;BME280;76694;53.530;50.016;2024-03-08T20:38:15;100356.25;;;-9.56;81.40
86085;BME280;76694;53.530;50.016;2024-03-08T20:43:22;100365.28;;;-9.42;81.27
86085;BME280;76694;53.530;50.016;2024-03-08T20:48:26;100360.34;;;-9.35;81.64
86085;BME280;76694;53.530;50.016;2024-03-08T20:53:30;100355.19;;;-9.31;81.60
86085;BME280;76694;53.530;50.016;2024-03-08T20:58:33;100356.72;;;-9.25;81.57
86085;BME280;76694;53.530;50.016;2024-03-08T21:03:35;100354.56;;;-9.23;81.21
86085;BME280;76694;53.530;50.016;2024-03-08T21:08:40;100336.28;;;-9.31;81.70
86085;BME280;76694;53.530;50.016;2024-03-08T21:13:43;100322.69;;;-9.26;80.85
86085;BME280;76694;53.530;50.016;2024-03-08T21:18:47;100332.59;;;-9.17;81.72
86085;BME280;76694;53.530;50.016;2024-03-08T21:23:50;100327.53;;;-9.23;81.65
86085;BME280;76694;53.530;50.016;2024-03-08T21:28:53;100334.19;;;-9.16;81.69
86085;BME280;76694;53.530;50.016;2024-03-08T21:33:55;100337.88;;;-9.07;80.80
86085;BME280;76694;53.530;50.016;2024-03-08T21:38:58;100331.88;;;-9.04;80.70
86085;BME280;76694;53.530;50.016;2024-03-08T21:44:01;100338.78;;;-8.92;81.40
86085;BME280;76694;53.530;50.016;2024-03-08T21:49:03;100329.50;;;-8.86;81.71
86085;BME280;76694;53.530;50.016;2024-03-08T21:54:06;100325.72;;;-8.85;81.25
86085;BME280;76694;53.530;50.016;2024-03-08T21:59:09;100326.78;;;-8.86;82.09
86085;BME280;76694;53.530;50.016;2024-03-08T22:04:12;100321.13;;;-8.85;82.31
86085;BME280;76694;53.530;50.016;2024-03-08T22:09:17;100315.13;;;-8.82;81.68
86085;BME280;76694;53.530;50.016;2024-03-08T22:14:23;100292.00;;;-8.93;82.01
86085;BME280;76694;53.530;50.016;2024-03-08T22:19:26;100306.19;;;-8.82;82.51
86085;BME280;76694;53.530;50.016;2024-03-08T22:24:28;100303.13;;;-8.76;81.98
86085;BME280;76694;53.530;50.016;2024-03-08T22:29:31;100320.22;;;-8.62;82.35
86085;BME280;76694;53.530;50.016;2024-03-08T22:34:33;100309.16;;;-8.60;82.72
86085;BME280;76694;53.530;50.016;2024-03-08T22:39:36;100322.06;;;-8.57;83.31
86085;BME280;76694;53.530;50.016;2024-03-08T22:44:39;100275.19;;;-8.85;83.13
86085;BME280;76694;53.530;50.016;2024-03-08T22:49:41;100299.56;;;-8.71;83.03
86085;BME280;76694;53.530;50.016;2024-03-08T22:54:45;100314.31;;;-8.64;84.11
86085;BME280;76694;53.530;50.016;2024-03-08T22:59:48;100291.50;;;-8.76;84.05
86085;BME280;76694;53.530;50.016;2024-03-08T23:04:55;100310.03;;;-8.65;84.49
86085;BME280;76694;53.530;50.016;2024-03-08T23:09:59;100301.91;;;-8.65;84.63
86085;BME280;76694;53.530;50.016;2024-03-08T23:15:04;100274.78;;;-8.78;84.76
86085;BME280;76694;53.530;50.016;2024-03-08T23:20:17;100276.47;;;-8.82;84.97
86085;BME280;76694;53.530;50.016;2024-03-08T23:25:22;100286.00;;;-8.66;84.29
86085;BME280;76694;53.530;50.016;2024-03-08T23:30:25;100290.28;;;-8.65;84.56
86085;BME280;76694;53.530;50.016;2024-03-08T23:35:30;100285.38;;;-8.63;84.59
86085;BME280;76694;53.530;50.016;2024-03-08T23:40:34;100253.41;;;-8.75;84.76
86085;BME280;76694;53.530;50.016;2024-03-08T23:45:36;100255.28;;;-8.75;84.76
86085;BME280;76694;53.530;50.016;2024-03-08T23:50:40;100246.31;;;-8.71;85.06
86085;BME280;76694;53.530;50.016;2024-03-08T23:55:44;100253.53;;;-8.66;84.97
